Time;durP1;ratioP1;P1;durP2;ratioP2;P2;SDS_P1;SDS_P2;PMS_P1;PMS_P2;Temp;Humidity;BMP_temperature;BMP_pressure;BME280_temperature;BME280_humidity;BME280_pressure;Samples;Min_cycle;Max_cycle;Signal;HPM_P1;HPM_P2
2024/02/08 00:01:01;;;;;;;2.20;1.35;;;;;;;8.18;88.82;99160.59;3127633;23;20032;-77
2024/02/08 00:02:15;;;;;;;2.08;1.88;;;;;;;8.19;88.88;99163.16;3127631;23;20055;-77
2024/02/08 00:03:28;;;;;;;2.65;2.08;;;;;;;8.20;88.81;99158.81;3126867;23;20020;-77
2024/02/08 00:04:44;;;;;;;2.45;1.73;;;;;;;8.22;88.78;99149.25;3128259;23;20517;-77
2024/02/08 00:05:58;;;;;;;4.38;1.65;;;;;;;8.22;88.93;99149.25;3132998;23;20021;-77
2024/02/08 00:07:12;;;;;;;2.97;2.08;;;;;;;8.22;88.97;99150.09;3127432;23;20356;-77
2024/02/08 00:08:26;;;;;;;2.58;1.75;;;;;;;8.21;88.94;99156.19;3128025;23;20020;-77
2024/02/08 00:09:40;;;;;;;3.28;2.05;;;;;;;8.22;89.02;99155.28;3128338;23;20515;-77
2024/02/08 00:10:54;;;;;;;5.78;2.17;;;;;;;8.22;88.90;99152.69;3127048;23;20025;-77
2024/02/08 00:12:08;;;;;;;2.55;1.60;;;;;;;8.22;88.97;99152.69;3128738;23;20027;-77
2024/02/08 00:13:23;;;;;;;2.70;1.63;;;;;;;8.23;88.93;99156.16;3128308;23;20337;-77
2024/02/08 00:14:38;;;;;;;3.65;1.95;;;;;;;8.23;89.09;99145.75;3127607;23;20059;-77
2024/02/08 00:15:52;;;;;;;4.93;2.10;;;;;;;8.20;88.95;99151.88;3127768;23;20051;-78
2024/02/08 00:17:07;;;;;;;2.78;2.55;;;;;;;8.22;88.83;99147.50;3128021;23;20020;-77
2024/02/08 00:18:21;;;;;;;3.47;1.83;;;;;;;8.22;88.90;99139.69;3133157;23;20028;-78
2024/02/08 00:19:35;;;;;;;1.85;1.33;;;;;;;8.22;88.92;99149.25;3127310;23;20092;-77
2024/02/08 00:20:49;;;;;;;1.38;1.20;;;;;;;8.22;88.91;99139.69;3127785;23;20035;-77
2024/02/08 00:22:04;;;;;;;2.20;1.50;;;;;;;8.23;88.88;99144.00;3128024;23;20095;-78
2024/02/08 00:23:17;;;;;;;7.80;1.52;;;;;;;8.24;89.11;99144.88;3127371;23;20017;-77
2024/02/08 00:24:35;;;;;;;3.60;2.58;;;;;;;8.24;89.11;99153.53;3127636;23;20023;-77
2024/02/08 00:25:50;;;;;;;3.47;2.17;;;;;;;8.24;89.17;99153.53;3133123;23;20025;-77
2024/02/08 00:27:05;;;;;;;2.80;1.90;;;;;;;8.25;89.00;99139.63;3126080;23;20044;-77
2024/02/08 00:28:21;;;;;;;2.45;1.75;;;;;;;8.27;88.89;99142.19;3128018;23;20025;-77
2024/02/08 00:29:41;;;;;;;3.35;2.13;;;;;;;8.27;89.17;99145.66;3132857;23;20008;-77
2024/02/08 00:30:55;;;;;;;2.22;1.65;;;;;;;8.28;89.02;99138.69;3127488;23;20017;-77
2024/02/08 00:32:11;;;;;;;4.93;1.70;;;;;;;8.28;89.18;99149.94;3126685;23;20459;-78
2024/02/08 00:33:25;;;;;;;5.10;1.83;;;;;;;8.30;89.17;99148.16;3127293;23;20470;-78
2024/02/08 00:34:40;;;;;;;3.22;1.45;;;;;;;8.32;88.89;99149.91;3127093;23;20016;-77
2024/02/08 00:35:55;;;;;;;1.63;1.33;;;;;;;8.32;88.89;99148.16;3133070;23;20027;-77
2024/02/08 00:37:09;;;;;;;2.95;1.35;;;;;;;8.35;88.99;99149.81;3127937;23;20023;-78
2024/02/08 00:38:23;;;;;;;2.55;1.60;;;;;;;8.34;89.16;99151.56;3131707;23;20024;-77
2024/02/08 00:39:42;;;;;;;3.08;2.35;;;;;;;8.36;88.98;99149.75;3126974;23;20412;-77
2024/02/08 00:40:56;;;;;;;2.50;1.95;;;;;;;8.35;88.92;99158.47;3127794;23;20024;-77
2024/02/08 00:42:12;;;;;;;1.45;1.35;;;;;;;8.37;88.79;99158.44;3127581;23;20399;-78
2024/02/08 00:43:25;;;;;;;1.63;1.52;;;;;;;8.37;88.76;99153.25;3127187;23;20040;-77
2024/02/08 00:44:41;;;;;;;2.08;1.50;;;;;;;8.37;88.93;99148.88;3128002;23;20021;-78
2024/02/08 00:45:54;;;;;;;2.38;1.70;;;;;;;8.38;88.74;99144.53;3132978;23;20028;-77
2024/02/08 00:47:10;;;;;;;5.95;3.88;;;;;;;8.39;88.73;99146.25;3129571;23;20020;-77
2024/02/08 00:48:24;;;;;;;1.58;1.33;;;;;;;8.39;88.92;99148.84;3128102;23;20027;-78
2024/02/08 00:49:39;;;;;;;3.67;1.60;;;;;;;8.39;88.85;99148.84;3127583;23;20091;-77
2024/02/08 00:50:54;;;;;;;2.05;1.83;;;;;;;8.40;89.01;99148.00;3126962;23;20095;-77
2024/02/08 00:52:09;;;;;;;2.30;1.40;;;;;;;8.40;88.87;99143.66;3127886;23;20095;-77
2024/02/08 00:53:23;;;;;;;1.55;1.45;;;;;;;8.40;88.94;99142.81;3132604;23;20033;-78
2024/02/08 00:54:37;;;;;;;1.98;1.52;;;;;;;8.41;88.91;99154.91;3127482;23;20474;-77
2024/02/08 00:55:51;;;;;;;2.60;2.13;;;;;;;8.41;89.01;99145.34;3127688;23;20025;-77
2024/02/08 00:57:07;;;;;;;2.35;1.70;;;;;;;8.42;89.07;99147.06;3127610;23;20096;-78
2024/02/08 00:58:21;;;;;;;2.50;1.70;;;;;;;8.43;89.04;99150.53;3127790;23;20024;-77
2024/02/08 00:59:37;;;;;;;2.00;1.80;;;;;;;8.43;88.86;99147.91;3126841;23;20021;-77
2024/02/08 01:00:53;;;;;;;1.90;1.30;;;;;;;8.45;89.09;99146.13;3127353;23;20024;-77
2024/02/08 01:02:09;;;;;;;3.28;1.92;;;;;;;8.44;89.06;99150.50;3127839;23;20027;-77
2024/02/08 01:03:24;;;;;;;2.75;1.58;;;;;;;8.46;88.99;99145.25;3128124;23;20478;-78
2024/02/08 01:04:39;;;;;;;3.67;1.70;;;;;;;8.45;88.82;99140.94;3130078;23;20355;-78
2024/02/08 01:05:53;;;;;;;1.63;1.40;;;;;;;8.46;88.80;99147.84;3129806;23;20028;-77
2024/02/08 01:07:07;;;;;;;2.60;2.10;;;;;;;8.47;88.88;99142.63;3131173;23;20055;-77
2024/02/08 01:08:22;;;;;;;1.48;1.00;;;;;;;8.47;88.88;99145.22;3128843;23;20387;-77
2024/02/08 01:09:37;;;;;;;2.35;1.50;;;;;;;8.48;88.91;99146.91;3129669;23;20023;-77
2024/02/08 01:10:50;;;;;;;2.13;0.95;;;;;;;8.49;88.92;99148.63;3127392;23;20486;-77
2024/02/08 01:12:05;;;;;;;2.28;1.67;;;;;;;8.49;88.62;99145.16;3133975;23;20080;-78
2024/02/08 01:13:19;;;;;;;3.13;1.63;;;;;;;8.51;88.82;99148.59;3130331;23;20031;-78
2024/02/08 01:14:33;;;;;;;1.65;1.55;;;;;;;8.51;88.87;99152.03;3128563;23;20059;-78
2024/02/08 01:15:47;;;;;;;2.20;1.30;;;;;;;8.52;89.06;99148.56;3128851;23;20044;-78
2024/02/08 01:17:04;;;;;;;1.67;1.40;;;;;;;8.53;88.79;99152.00;3129411;23;20052;-78
2024/02/08 01:18:20;;;;;;;1.98;1.52;;;;;;;8.52;88.89;99150.31;3128128;23;20084;-77
2024/02/08 01:19:36;;;;;;;2.00;1.27;;;;;;;8.55;88.90;99151.97;3126912;23;20021;-77
2024/02/08 01:20:50;;;;;;;3.42;1.40;;;;;;;8.56;88.89;99156.28;3128993;23;20044;-78
2024/02/08 01:22:05;;;;;;;2.72;1.20;;;;;;;8.57;88.76;99145.84;3129481;23;20052;-79
2024/02/08 01:23:18;;;;;;;2.22;1.40;;;;;;;8.58;88.75;99152.75;3129132;23;20024;-78
2024/02/08 01:24:33;;;;;;;2.03;1.67;;;;;;;8.59;88.67;99158.78;3129001;23;20095;-77
2024/02/08 01:25:47;;;;;;;1.73;1.30;;;;;;;8.59;88.69;99151.84;3128051;23;20020;-77
2024/02/08 01:27:04;;;;;;;1.45;1.33;;;;;;;8.60;88.96;99150.97;3127625;23;20020;-77
2024/02/08 01:28:17;;;;;;;2.38;2.03;;;;;;;8.62;88.87;99150.91;3127097;23;20356;-77
2024/02/08 01:29:31;;;;;;;4.00;1.92;;;;;;;8.62;88.61;99151.78;3127277;23;20100;-77
2024/02/08 01:30:45;;;;;;;4.25;1.83;;;;;;;8.63;88.76;99148.28;3126707;23;20021;-78
2024/02/08 01:32:01;;;;;;;1.02;0.93;;;;;;;8.63;88.62;99150.88;3133766;23;20104;-77
2024/02/08 01:33:14;;;;;;;1.95;1.60;;;;;;;8.63;88.70;99156.09;3127843;23;20092;-77
2024/02/08 01:34:28;;;;;;;4.10;2.00;;;;;;;8.63;88.62;99145.69;3127144;23;20020;-77
2024/02/08 01:35:43;;;;;;;8.23;1.50;;;;;;;8.64;88.66;99147.38;3142009;23;20024;-78
2024/02/08 01:36:59;;;;;;;1.33;1.20;;;;;;;8.64;88.62;99139.59;3142777;23;20025;-77
2024/02/08 01:38:16;;;;;;;2.78;1.00;;;;;;;8.64;88.59;99136.97;3142495;23;20103;-77
2024/02/08 01:39:30;;;;;;;1.80;1.20;;;;;;;8.65;88.72;99143.06;3141684;22;20072;-77
2024/02/08 01:40:44;;;;;;;3.50;1.33;;;;;;;8.65;88.54;99149.13;3142249;23;20024;-77
2024/02/08 01:41:58;;;;;;;1.35;1.25;;;;;;;8.66;88.85;99143.00;3142626;23;20024;-77
2024/02/08 01:43:11;;;;;;;1.58;1.45;;;;;;;8.66;88.80;99148.22;3141893;22;20017;-77
2024/02/08 01:44:26;;;;;;;2.90;1.30;;;;;;;8.67;88.66;99142.13;3142195;22;20024;-77
2024/02/08 01:45:41;;;;;;;2.35;1.20;;;;;;;8.66;88.60;99145.59;3142033;23;20035;-77
2024/02/08 01:46:55;;;;;;;2.17;1.13;;;;;;;8.67;88.52;99141.25;3141814;22;20494;-77
2024/02/08 01:48:10;;;;;;;1.83;1.52;;;;;;;8.67;88.71;99139.53;3142616;23;20024;-77
2024/02/08 01:49:26;;;;;;;2.03;1.38;;;;;;;8.68;88.73;99136.03;3142317;23;20047;-77
2024/02/08 01:50:44;;;;;;;3.50;1.27;;;;;;;8.69;88.66;99140.31;3141618;22;20024;-77
2024/02/08 01:52:00;;;;;;;1.95;1.45;;;;;;;8.70;88.47;99130.78;3142611;23;20073;-77
2024/02/08 01:53:18;;;;;;;1.70;1.60;;;;;;;8.72;88.63;99140.28;3142472;23;20091;-77
2024/02/08 01:54:33;;;;;;;3.90;1.10;;;;;;;8.73;88.63;99141.97;3141738;22;20024;-77
2024/02/08 01:55:49;;;;;;;1.20;0.95;;;;;;;8.76;88.64;99137.59;3142468;23;20079;-77
2024/02/08 01:57:08;;;;;;;1.83;1.10;;;;;;;8.76;88.61;99141.03;3142665;23;20137;-77
2024/02/08 01:58:24;;;;;;;3.08;1.33;;;;;;;8.76;88.50;99142.78;3142624;23;20024;-77
2024/02/08 01:59:38;;;;;;;2.25;1.20;;;;;;;8.76;88.16;99142.78;3141813;22;20027;-77
2024/02/08 02:00:53;;;;;;;4.07;1.83;;;;;;;8.77;88.16;99142.72;3142386;23;20031;-77
2024/02/08 02:02:09;;;;;;;1.25;1.00;;;;;;;8.77;88.48;99139.28;3142630;23;20035;-77
2024/02/08 02:03:23;;;;;;;1.08;1.08;;;;;;;8.77;88.32;99132.31;3141599;22;20074;-77
2024/02/08 02:04:39;;;;;;;1.85;1.23;;;;;;;8.77;88.21;99126.28;3142443;22;20352;-77
2024/02/08 02:05:54;;;;;;;2.53;0.95;;;;;;;8.77;88.21;99141.88;3142485;23;20351;-77
2024/02/08 02:07:09;;;;;;;1.35;1.15;;;;;;;8.76;88.05;99129.78;3142159;22;20024;-77
2024/02/08 02:08:23;;;;;;;1.58;1.48;;;;;;;8.75;88.30;99126.31;3142575;23;20055;-77
2024/02/08 02:09:39;;;;;;;1.27;0.90;;;;;;;8.77;88.27;99136.69;3143118;23;20395;-77
2024/02/08 02:11:05;;;;;;;1.45;1.00;;;;;;;8.77;88.17;99123.69;3142484;22;20016;-77
2024/02/08 02:12:22;;;;;;;4.15;1.35;;;;;;;8.78;88.03;99127.97;3143311;23;20058;-77
2024/02/08 02:13:37;;;;;;;1.23;0.93;;;;;;;8.80;88.07;99129.63;3143545;22;20024;-77
2024/02/08 02:14:53;;;;;;;2.00;1.90;;;;;;;8.81;87.98;99130.53;3142869;22;20020;-77
2024/02/08 02:16:06;;;;;;;1.60;1.08;;;;;;;8.80;88.03;99134.84;3143405;23;20035;-77
2024/02/08 02:17:26;;;;;;;2.88;1.27;;;;;;;8.82;87.93;99132.22;3143898;23;20521;-76
2024/02/08 02:18:39;;;;;;;2.55;0.90;;;;;;;8.82;88.16;99137.41;3143003;22;20099;-77
2024/02/08 02:20:05;;;;;;;1.52;0.93;;;;;;;8.83;88.05;99131.31;3143375;23;20020;-77
2024/02/08 02:21:21;;;;;;;3.83;1.52;;;;;;;8.82;87.95;99122.66;3143013;23;20103;-77
2024/02/08 02:22:35;;;;;;;1.30;0.85;;;;;;;8.84;88.00;99128.69;3143160;22;20087;-77
2024/02/08 02:23:48;;;;;;;1.13;0.98;;;;;;;8.84;88.16;99133.88;3143405;22;20031;-77
2024/02/08 02:25:05;;;;;;;1.20;1.08;;;;;;;8.84;87.93;99120.88;3143584;23;20087;-77
2024/02/08 02:26:18;;;;;;;1.55;0.80;;;;;;;8.84;87.97;99123.47;3143397;23;20124;-77
2024/02/08 02:27:33;;;;;;;1.85;0.95;;;;;;;8.85;87.91;99127.78;3142571;22;20567;-77
2024/02/08 02:28:46;;;;;;;1.40;1.13;;;;;;;8.85;87.83;99122.56;3143366;23;20031;-78
2024/02/08 02:30:01;;;;;;;2.53;1.17;;;;;;;8.86;87.84;99123.44;3144095;23;20024;-77
2024/02/08 02:31:16;;;;;;;2.42;2.22;;;;;;;8.87;87.97;99123.38;3143277;22;20530;-77
2024/02/08 02:32:31;;;;;;;1.05;1.02;;;;;;;8.89;87.88;99118.16;3144593;23;20399;-77
2024/02/08 02:33:46;;;;;;;1.17;0.80;;;;;;;8.90;87.90;99117.25;3147066;22;20024;-78
2024/02/08 02:35:00;;;;;;;1.02;0.90;;;;;;;8.91;87.96;99114.63;3145813;22;20471;-78
2024/02/08 02:36:14;;;;;;;5.47;1.58;;;;;;;8.93;87.80;99118.03;3143681;23;20024;-77
2024/02/08 02:37:33;;;;;;;1.67;0.95;;;;;;;8.95;87.88;99117.97;3144332;23;20042;-78
2024/02/08 02:38:46;;;;;;;1.00;0.70;;;;;;;8.95;87.55;99116.22;3144480;22;20045;-77
2024/02/08 02:40:01;;;;;;;1.30;0.95;;;;;;;8.97;87.66;99113.59;3145148;23;20284;-78
2024/02/08 02:41:15;;;;;;;1.13;0.80;;;;;;;8.98;87.77;99106.66;3142597;23;20024;-78
2024/02/08 02:42:29;;;;;;;2.05;0.70;;;;;;;8.97;87.49;99107.56;3142373;22;20091;-77
2024/02/08 02:43:44;;;;;;;1.98;0.82;;;;;;;8.95;87.33;99089.38;3143021;22;20031;-77
2024/02/08 02:45:00;;;;;;;0.98;0.85;;;;;;;8.97;87.20;99104.94;3143503;23;20030;-78
2024/02/08 02:46:18;;;;;;;1.45;1.05;;;;;;;8.96;87.17;99119.72;3145818;23;20347;-77
2024/02/08 02:47:31;;;;;;;1.10;0.85;;;;;;;8.95;87.31;99102.38;3143095;22;20086;-78
2024/02/08 02:48:46;;;;;;;1.23;1.13;;;;;;;8.93;87.20;99098.94;3143123;23;20024;-77
2024/02/08 02:49:59;;;;;;;1.85;0.93;;;;;;;8.92;87.24;99094.66;3143729;23;20024;-77
2024/02/08 02:51:13;;;;;;;1.00;0.88;;;;;;;8.91;87.25;99100.78;3142562;22;20091;-77
2024/02/08 02:52:28;;;;;;;1.35;0.90;;;;;;;8.90;87.31;99092.09;3143583;23;20455;-77
2024/02/08 02:53:43;;;;;;;0.93;0.77;;;;;;;8.89;87.36;99093.00;3143001;22;20479;-77
2024/02/08 02:54:56;;;;;;;1.48;1.13;;;;;;;8.89;87.37;99099.94;3142895;22;20020;-78
2024/02/08 02:56:11;;;;;;;1.30;0.88;;;;;;;8.89;87.39;99094.75;3143454;23;20358;-77
2024/02/08 02:57:25;;;;;;;1.95;0.70;;;;;;;8.89;87.50;99089.53;3145664;23;20020;-78
2024/02/08 02:58:39;;;;;;;3.33;1.08;;;;;;;8.90;87.55;99094.69;3144730;22;20348;-77
2024/02/08 02:59:55;;;;;;;1.08;0.80;;;;;;;8.91;87.45;99093.81;3145781;23;20047;-78
2024/02/08 03:01:12;;;;;;;1.50;1.15;;;;;;;8.91;87.34;99105.97;3145308;23;20459;-77
2024/02/08 03:02:28;;;;;;;2.10;1.15;;;;;;;8.93;87.51;99093.75;3143239;23;20099;-77
2024/02/08 03:03:42;;;;;;;1.38;0.80;;;;;;;8.95;87.52;99089.38;3142949;22;20023;-77
2024/02/08 03:04:56;;;;;;;1.85;0.93;;;;;;;8.97;87.53;99092.78;3143312;23;20024;-78
2024/02/08 03:06:13;;;;;;;1.30;0.98;;;;;;;8.98;87.58;99093.63;3143397;23;20026;-77
2024/02/08 03:07:28;;;;;;;4.60;0.70;;;;;;;8.99;87.41;99100.56;3142484;22;20095;-77
2024/02/08 03:08:43;;;;;;;1.55;0.50;;;;;;;8.98;87.53;99094.47;3143345;23;20095;-77
2024/02/08 03:09:56;;;;;;;0.90;0.73;;;;;;;9.00;87.50;99087.50;3143419;23;20447;-77
2024/02/08 03:11:11;;;;;;;2.20;0.88;;;;;;;9.00;87.59;99107.47;3142609;22;20022;-77
2024/02/08 03:12:26;;;;;;;1.20;1.00;;;;;;;9.01;87.53;99083.13;3143075;23;20592;-77
2024/02/08 03:13:41;;;;;;;1.35;0.50;;;;;;;9.00;87.36;99078.84;3143648;22;20020;-78
2024/02/08 03:14:58;;;;;;;0.60;0.60;;;;;;;8.99;87.33;99078.00;3146818;22;20043;-78
2024/02/08 03:16:14;;;;;;;1.02;0.90;;;;;;;8.99;87.20;99078.00;3144481;23;20027;-77
2024/02/08 03:17:28;;;;;;;1.02;0.88;;;;;;;8.98;87.22;99076.25;3143121;23;20026;-77
2024/02/08 03:18:45;;;;;;;0.70;0.68;;;;;;;8.98;87.16;99083.22;3142528;22;20027;-77
2024/02/08 03:20:00;;;;;;;0.75;0.60;;;;;;;8.95;87.16;99073.75;3142437;23;20032;-77
2024/02/08 03:21:17;;;;;;;0.68;0.60;;;;;;;8.95;86.99;99078.97;3142886;23;20024;-77
2024/02/08 03:22:34;;;;;;;0.98;0.70;;;;;;;8.93;87.16;99072.94;3142530;22;20016;-77
2024/02/08 03:23:49;;;;;;;1.95;0.85;;;;;;;8.93;87.21;99080.75;3142684;22;20721;-77
2024/02/08 03:25:04;;;;;;;0.75;0.75;;;;;;;8.93;87.10;99080.75;3142940;23;20024;-77
2024/02/08 03:26:18;;;;;;;2.38;0.80;;;;;;;8.91;87.14;99083.41;3143079;23;20453;-77
2024/02/08 03:27:32;;;;;;;1.15;0.80;;;;;;;8.91;87.31;99085.16;3142324;22;20027;-77
2024/02/08 03:28:51;;;;;;;1.13;0.55;;;;;;;8.89;87.30;99082.59;3142872;23;20099;-77
2024/02/08 03:30:11;;;;;;;2.63;0.82;;;;;;;8.89;87.23;99079.97;3142808;23;20016;-77
2024/02/08 03:31:26;;;;;;;1.92;1.30;;;;;;;8.88;87.41;99091.28;3142369;22;20070;-78
2024/02/08 03:32:41;;;;;;;0.75;0.60;;;;;;;8.87;87.22;99086.97;3143066;23;20095;-77
2024/02/08 03:33:55;;;;;;;1.15;1.02;;;;;;;8.86;87.35;99093.06;3142858;22;20024;-77
2024/02/08 03:35:08;;;;;;;1.35;1.25;;;;;;;8.86;87.37;99071.41;3144343;22;20459;-77
2024/02/08 03:36:23;;;;;;;1.42;0.85;;;;;;;8.85;87.21;99086.16;3143155;23;20026;-77
2024/02/08 03:37:38;;;;;;;1.48;1.00;;;;;;;8.85;87.30;99090.50;3142939;23;20418;-77
2024/02/08 03:38:53;;;;;;;1.02;0.70;;;;;;;8.86;87.45;99084.44;3141750;22;20051;-77
2024/02/08 03:40:08;;;;;;;1.02;0.90;;;;;;;8.85;87.41;99090.50;3142530;23;20422;-77
2024/02/08 03:41:26;;;;;;;3.20;0.88;;;;;;;8.85;87.34;99088.75;3144354;23;20020;-77
2024/02/08 03:42:39;;;;;;;0.70;0.57;;;;;;;8.84;87.37;99092.25;3144232;22;20024;-76
2024/02/08 03:43:54;;;;;;;1.02;0.65;;;;;;;8.83;87.40;99084.47;3144352;22;20062;-77
2024/02/08 03:45:08;;;;;;;1.20;0.70;;;;;;;8.84;87.53;99091.41;3143838;23;20039;-77
2024/02/08 03:46:24;;;;;;;0.65;0.60;;;;;;;8.82;87.52;99094.03;3143195;23;20048;-76
2024/02/08 03:47:39;;;;;;;1.73;1.00;;;;;;;8.81;87.65;99087.16;3142534;22;20471;-77
2024/02/08 03:48:54;;;;;;;1.30;0.88;;;;;;;8.81;87.40;99081.09;3143201;23;20020;-78
2024/02/08 03:50:07;;;;;;;1.00;0.90;;;;;;;8.79;87.53;99083.72;3142936;23;20451;-77
2024/02/08 03:51:22;;;;;;;1.20;0.90;;;;;;;8.78;87.64;99084.63;3142603;22;20047;-78
2024/02/08 03:52:37;;;;;;;1.20;1.15;;;;;;;8.79;87.55;99088.06;3143174;23;20020;-77
2024/02/08 03:53:53;;;;;;;1.48;1.00;;;;;;;8.78;87.74;99086.34;3143441;22;20451;-77
2024/02/08 03:55:08;;;;;;;1.55;1.30;;;;;;;8.77;87.70;99088.09;3142640;22;20020;-77
2024/02/08 03:56:26;;;;;;;0.90;0.77;;;;;;;8.76;87.73;99089.00;3143893;23;20095;-78
2024/02/08 03:57:40;;;;;;;1.02;0.80;;;;;;;8.76;87.91;99093.38;3143223;23;20028;-78
2024/02/08 03:58:54;;;;;;;1.17;0.68;;;;;;;8.75;87.82;99082.09;3143261;22;20020;-77
2024/02/08 04:00:13;;;;;;;1.42;1.23;;;;;;;8.74;87.83;99080.38;3148025;23;20410;-77
2024/02/08 04:01:28;;;;;;;2.25;0.75;;;;;;;8.73;87.87;99082.16;3143646;23;20051;-78
2024/02/08 04:02:43;;;;;;;1.52;1.08;;;;;;;8.72;87.91;99083.06;3143533;22;20451;-78
2024/02/08 04:04:11;;;;;;;1.48;1.10;;;;;;;8.72;87.90;99080.44;3144176;22;20024;-78
2024/02/08 04:05:37;;;;;;;1.15;0.77;;;;;;;8.73;87.98;99078.69;3144051;23;20051;-78
2024/02/08 04:07:01;;;;;;;3.05;0.68;;;;;;;8.71;87.96;99068.31;3144112;22;20099;-77
2024/02/08 04:08:22;;;;;;;0.82;0.63;;;;;;;8.71;87.96;99072.69;3144534;23;20044;-78
2024/02/08 04:09:39;;;;;;;0.60;0.60;;;;;;;8.71;88.17;99064.88;3145561;23;20095;-78
2024/02/08 04:54:48;;;;;;;1.50;1.20;;;;;;;8.69;88.80;99062.28;3143517;22;20031;-79
2024/02/08 04:56:08;;;;;;;2.38;0.82;;;;;;;8.70;88.65;99052.78;3143789;23;20337;-79
2024/02/08 04:57:25;;;;;;;2.08;1.10;;;;;;;8.70;88.80;99048.41;3143832;23;20521;-78
2024/02/08 04:58:40;;;;;;;0.73;0.73;;;;;;;8.70;88.71;99048.41;3143302;22;20070;-79
2024/02/08 04:59:54;;;;;;;0.95;0.68;;;;;;;8.71;88.76;99049.25;3143807;23;20028;-78
2024/02/08 05:01:08;;;;;;;2.65;0.95;;;;;;;8.71;88.91;99055.31;3143450;23;20031;-79
2024/02/08 05:02:23;;;;;;;2.75;0.85;;;;;;;8.71;88.81;99049.25;3143658;23;20026;-79
2024/02/08 05:03:38;;;;;;;1.90;0.70;;;;;;;8.72;88.88;99056.16;3142821;22;20482;-80
2024/02/08 05:04:52;;;;;;;2.03;1.08;;;;;;;8.71;88.89;99055.31;3143591;23;20044;-76
2024/02/08 05:06:11;;;;;;;1.42;0.88;;;;;;;8.72;88.73;99050.97;3143050;23;20364;-78
2024/02/08 05:07:26;;;;;;;1.67;0.80;;;;;;;8.71;88.95;99060.50;3142826;22;20016;-79
2024/02/08 05:08:41;;;;;;;1.13;0.93;;;;;;;8.72;88.95;99050.97;3144342;23;20028;-80
2024/02/08 05:09:55;;;;;;;1.48;0.82;;;;;;;8.72;88.83;99051.84;3143331;23;20030;-80
2024/02/08 05:11:14;;;;;;;5.50;1.27;;;;;;;8.72;88.87;99049.25;3143263;22;20482;-79
2024/02/08 05:12:30;;;;;;;0.95;0.85;;;;;;;8.72;88.83;99050.97;3143886;23;20076;-79
2024/02/08 05:13:48;;;;;;;0.93;0.60;;;;;;;8.71;88.83;99049.25;3143598;22;20056;-80
2024/02/08 05:15:06;;;;;;;1.02;0.80;;;;;;;8.70;88.83;99048.41;3142993;22;20258;-79
2024/02/08 05:16:20;;;;;;;1.00;0.90;;;;;;;8.71;88.76;99049.25;3143718;23;20537;-76
2024/02/08 05:17:34;;;;;;;0.52;0.50;;;;;;;8.71;88.82;99054.47;3144246;23;20048;-80
2024/02/08 05:18:48;;;;;;;1.77;0.70;;;;;;;8.71;88.72;99049.25;3143944;22;20027;-80
2024/02/08 05:20:04;;;;;;;1.23;0.88;;;;;;;8.70;88.72;99058.81;3144061;23;20118;-79
2024/02/08 05:21:17;;;;;;;2.25;0.80;;;;;;;8.70;88.77;99045.81;3144389;23;20535;-80
2024/02/08 05:22:32;;;;;;;0.90;0.70;;;;;;;8.69;88.78;99057.09;3143467;22;20031;-79
2024/02/08 05:23:47;;;;;;;3.92;1.35;;;;;;;8.69;88.86;99051.03;3143632;22;20107;-77
2024/02/08 05:25:02;;;;;;;3.80;1.17;;;;;;;8.68;88.88;99055.41;3143304;23;20095;-79
2024/02/08 05:26:18;;;;;;;2.58;1.42;;;;;;;8.68;88.80;99045.00;3144318;23;20020;-79
2024/02/08 05:27:32;;;;;;;1.33;0.70;;;;;;;8.68;88.88;99049.34;3143851;22;20016;-80
2024/02/08 05:28:46;;;;;;;1.65;0.70;;;;;;;8.67;88.87;99045.03;3144002;23;20020;-79
2024/02/08 05:30:01;;;;;;;1.10;0.98;;;;;;;8.66;89.03;99044.19;3143890;23;20075;-80
2024/02/08 05:31:16;;;;;;;14.80;1.65;;;;;;;8.66;88.76;99054.59;3143574;22;20379;-79
2024/02/08 05:32:35;;;;;;;2.08;1.13;;;;;;;8.65;88.90;99046.84;3144106;23;20024;-80
2024/02/08 05:33:52;;;;;;;2.30;1.00;;;;;;;8.63;88.90;99054.66;3143892;22;20103;-81
2024/02/08 05:35:07;;;;;;;1.00;0.73;;;;;;;8.64;88.86;99045.13;3143204;22;20043;-80
2024/02/08 05:36:20;;;;;;;2.80;0.95;;;;;;;8.63;88.88;99052.06;3143677;23;20021;-80
2024/02/08 05:37:34;;;;;;;2.03;1.05;;;;;;;8.62;88.75;99041.69;3143608;23;20293;-79
2024/02/08 05:38:52;;;;;;;3.13;0.82;;;;;;;8.63;88.83;99052.06;3143017;22;20025;-80
2024/02/08 05:40:07;;;;;;;1.15;0.93;;;;;;;8.63;89.10;99049.47;3143450;23;20024;-77
2024/02/08 05:41:22;;;;;;;4.88;1.35;;;;;;;8.64;89.07;99053.75;3143567;23;20531;-79
2024/02/08 05:42:36;;;;;;;3.58;2.22;;;;;;;8.64;89.12;99053.75;3143437;22;20023;-80
2024/02/08 05:43:51;;;;;;;1.25;0.75;;;;;;;8.63;89.17;99044.28;3144571;22;20027;-80
2024/02/08 05:45:18;;;;;;;1.52;1.10;;;;;;;8.65;89.16;99046.84;3145355;23;20020;-79
2024/02/08 05:46:37;;;;;;;1.08;0.75;;;;;;;8.65;89.22;99044.25;3144510;22;20351;-78
2024/02/08 05:47:51;;;;;;;0.90;0.80;;;;;;;8.65;89.22;99045.09;3144838;23;20084;-78
2024/02/08 05:49:11;;;;;;;2.30;1.20;;;;;;;8.66;89.15;99049.38;3144858;23;20486;-80
2024/02/08 05:50:25;;;;;;;1.42;0.98;;;;;;;8.65;89.26;99039.88;3144889;23;20738;-79
2024/02/08 05:51:42;;;;;;;0.88;0.88;;;;;;;8.66;89.17;99054.59;3144456;22;20054;-80
2024/02/08 05:52:57;;;;;;;0.88;0.88;;;;;;;8.67;89.32;99052.81;3145470;23;20020;-79
2024/02/08 05:54:16;;;;;;;1.85;0.70;;;;;;;8.67;89.31;99048.50;3144508;22;20028;-79
2024/02/08 05:55:34;;;;;;;1.35;1.25;;;;;;;8.68;89.17;99055.41;3144309;22;20417;-80
2024/02/08 05:56:57;;;;;;;2.95;0.85;;;;;;;8.67;89.22;99043.31;3144826;23;20024;-78
2024/02/08 05:58:16;;;;;;;;;;;;;;;8.67;89.33;99042.44;3145886;23;20103;-80
2024/02/08 05:59:31;;;;;;;2.38;1.10;;;;;;;8.65;89.14;99042.47;3144592;22;19935;-80
2024/02/08 06:00:52;;;;;;;1.17;0.80;;;;;;;8.65;89.20;99039.03;3145860;23;20047;-81
2024/02/08 06:02:14;;;;;;;1.45;0.88;;;;;;;8.64;89.16;99040.75;3145416;23;20028;-80
2024/02/08 06:03:27;;;;;;;1.17;0.98;;;;;;;8.64;89.25;99043.34;3145585;22;20082;-80
2024/02/08 06:04:50;;;;;;;1.85;1.08;;;;;;;8.65;89.20;99037.28;3145768;23;20058;-79
2024/02/08 06:06:07;;;;;;;1.98;1.08;;;;;;;8.65;89.35;99034.69;3146065;23;20016;-79
2024/02/08 06:07:21;;;;;;;3.60;1.10;;;;;;;8.65;89.36;99041.63;3144694;22;20061;-80
2024/02/08 06:08:39;;;;;;;1.00;0.73;;;;;;;8.64;89.28;99032.97;3145542;23;20457;-81
2024/02/08 06:10:07;;;;;;;1.40;1.05;;;;;;;8.64;89.24;99034.72;3145126;23;20046;-81
2024/02/08 06:11:22;;;;;;;1.55;1.02;;;;;;;8.64;89.43;99038.16;3147188;22;20024;-77
2024/02/08 06:12:43;;;;;;;2.78;1.05;;;;;;;8.65;89.41;99033.84;3150122;23;20020;-79
2024/02/08 06:13:59;;;;;;;1.00;0.85;;;;;;;8.65;89.54;99024.28;3149513;22;20031;-78
2024/02/08 06:15:21;;;;;;;1.45;0.90;;;;;;;8.65;89.37;99026.88;3147062;22;20090;-78
2024/02/08 06:16:45;;;;;;;2.08;1.00;;;;;;;8.65;89.37;99029.47;3146911;23;20336;-81
2024/02/08 06:18:03;;;;;;;0.90;0.77;;;;;;;8.66;89.35;99025.97;3150630;23;20076;-80
2024/02/08 06:19:18;;;;;;;1.20;1.10;;;;;;;8.65;89.43;99029.47;3144961;22;20016;-81
2024/02/08 06:20:40;;;;;;;2.08;1.02;;;;;;;8.66;89.35;99033.78;3145127;23;20020;-80
2024/02/08 06:21:57;;;;;;;3.53;0.95;;;;;;;8.67;89.47;99038.09;3144686;23;20020;-80
2024/02/08 06:23:17;;;;;;;3.33;1.52;;;;;;;8.66;89.57;99027.72;3144908;22;20128;-81
2024/02/08 06:24:32;;;;;;;1.50;0.93;;;;;;;8.66;89.54;99025.97;3145336;22;20097;-80
2024/02/08 06:26:01;;;;;;;1.45;1.10;;;;;;;8.67;89.54;99032.03;3145386;23;20031;-80
2024/02/08 06:27:14;;;;;;;1.30;1.15;;;;;;;8.66;89.62;99031.19;3144318;22;20016;-80
2024/02/08 06:28:33;;;;;;;2.70;1.30;;;;;;;8.66;89.64;99031.19;3145137;23;20027;-80
2024/02/08 06:29:47;;;;;;;1.63;0.90;;;;;;;8.66;89.54;99028.56;3144833;23;20062;-80
2024/02/08 06:31:06;;;;;;;2.65;1.17;;;;;;;8.67;89.54;99027.69;3144321;22;20522;-81
2024/02/08 06:32:43;;;;;;;2.13;1.45;;;;;;;8.67;89.42;99032.03;3145165;23;20024;-81
2024/02/08 06:34:10;;;;;;;2.58;2.13;;;;;;;8.67;89.59;99030.31;3145679;22;20031;-81
2024/02/08 06:35:28;;;;;;;1.00;0.90;;;;;;;8.67;89.60;99030.31;3144744;22;20027;-81
2024/02/08 06:36:58;;;;;;;3.28;1.25;;;;;;;8.67;89.57;99032.91;3145311;23;20017;-79
2024/02/08 06:38:14;;;;;;;1.48;0.95;;;;;;;8.67;89.45;99030.31;3144829;23;20024;-81
2024/02/08 06:39:30;;;;;;;1.00;0.80;;;;;;;8.67;89.70;99016.41;3144301;22;20119;-81
2024/02/08 06:40:50;;;;;;;2.20;1.13;;;;;;;8.67;89.66;99030.31;3144740;23;20024;-81
2024/02/08 06:42:23;;;;;;;0.98;0.70;;;;;;;8.67;89.53;99022.50;3144653;23;20016;-78
2024/02/08 06:43:57;;;;;;;1.63;1.15;;;;;;;8.67;89.67;99032.91;3144463;22;20016;-81
2024/02/08 06:45:48;;;;;;;5.72;1.48;;;;;;;8.68;89.66;99033.75;3144944;23;20039;-81
2024/02/08 06:48:42;;;;;;;2.35;1.75;;;;;;;8.70;89.80;99038.00;3144442;23;20027;-81